Time;durP1;ratioP1;P1;durP2;ratioP2;P2;SDS_P1;SDS_P2;PMS_P1;PMS_P2;Temp;Humidity;BMP_temperature;BMP_pressure;BME280_temperature;BME280_humidity;BME280_pressure;Samples;Min_cycle;Max_cycle;Signal;HPM_P1;HPM_P2
2024/03/11 00:01:47;;;;;;;6.13;5.53;;;22.60;43.90;;;;;;10385056;28;20057;-62
2024/03/11 00:06:48;;;;;;;8.57;5.85;;;22.70;43.70;;;;;;10387756;28;20137;-62
2024/03/11 00:11:55;;;;;;;6.15;5.53;;;22.70;43.70;;;;;;10386830;28;20050;-60
2024/03/11 00:16:58;;;;;;;6.45;5.68;;;22.60;43.50;;;;;;10388724;28;20474;-61
2024/03/11 00:22:00;;;;;;;7.07;5.40;;;22.50;43.70;;;;;;10394718;28;20510;-62
2024/03/11 00:27:03;;;;;;;6.40;5.40;;;22.40;43.70;;;;;;10395816;28;20059;-61
2024/03/11 00:32:07;;;;;;;6.90;5.53;;;22.30;43.80;;;;;;10398321;28;20045;-59
2024/03/11 00:37:10;;;;;;;6.15;5.38;;;22.30;44.00;;;;;;10394107;28;20049;-62
2024/03/11 00:42:12;;;;;;;6.68;5.40;;;22.00;44.20;;;;;;10393382;28;20050;-63
2024/03/11 00:47:15;;;;;;;7.93;5.50;;;22.00;44.30;;;;;;10392903;28;20050;-63
2024/03/11 00:52:16;;;;;;;6.22;4.90;;;21.90;44.50;;;;;;10392942;28;20528;-62
2024/03/11 00:57:18;;;;;;;6.82;5.35;;;21.80;44.80;;;;;;10389103;28;20049;-61
2024/03/11 01:02:24;;;;;;;6.05;5.30;;;21.80;44.60;;;;;;10396670;28;20152;-61
2024/03/11 01:07:26;;;;;;;5.65;5.07;;;21.80;44.60;;;;;;10395496;28;20057;-62
2024/03/11 01:12:28;;;;;;;7.55;5.43;;;21.60;44.80;;;;;;10400917;28;20046;-60
2024/03/11 01:17:31;;;;;;;6.32;5.32;;;21.70;44.50;;;;;;10396599;28;20540;-59
2024/03/11 01:22:32;;;;;;;7.20;5.30;;;21.80;44.30;;;;;;10392767;28;20052;-62
2024/03/11 01:27:35;;;;;;;6.13;5.05;;;21.60;44.50;;;;;;10389014;28;20046;-59
2024/03/11 01:32:39;;;;;;;5.47;4.72;;;21.70;44.20;;;;;;10390853;28;20052;-62
2024/03/11 01:37:41;;;;;;;7.13;5.47;;;21.80;44.10;;;;;;10403364;28;20088;-61
2024/03/11 01:42:43;;;;;;;6.13;5.20;;;21.60;44.30;;;;;;10405560;28;20557;-59
2024/03/11 01:47:46;;;;;;;7.57;5.30;;;21.50;44.50;;;;;;10401719;28;20136;-61
2024/03/11 01:52:49;;;;;;;5.63;4.90;;;21.20;45.00;;;;;;10400059;28;20177;-63
2024/03/11 01:57:51;;;;;;;6.57;5.32;;;21.20;45.10;;;;;;10397431;28;20053;-60
2024/03/11 02:02:54;;;;;;;5.68;5.07;;;21.40;44.70;;;;;;10389742;28;20041;-62
2024/03/11 02:07:59;;;;;;;5.63;4.95;;;21.20;44.80;;;;;;10390228;28;20406;-62
2024/03/11 02:13:01;;;;;;;5.30;4.65;;;21.20;44.80;;;;;;10396515;28;20041;-57
2024/03/11 02:18:05;;;;;;;7.47;4.60;;;21.10;44.90;;;;;;10398040;28;20076;-61
2024/03/11 02:23:08;;;;;;;6.05;5.00;;;21.20;44.90;;;;;;10395788;28;20696;-57
2024/03/11 02:28:09;;;;;;;5.82;5.10;;;21.10;44.90;;;;;;10399625;28;20527;-60
2024/03/11 02:33:11;;;;;;;6.82;4.90;;;21.10;44.90;;;;;;10394326;28;20130;-59
2024/03/11 02:38:14;;;;;;;5.25;4.63;;;20.90;45.20;;;;;;10396075;28;20144;-62
2024/03/11 02:43:16;;;;;;;6.40;5.03;;;20.90;45.10;;;;;;10396222;28;20129;-60
2024/03/11 02:48:18;;;;;;;5.82;4.70;;;20.80;45.40;;;;;;10391230;28;20042;-62
2024/03/11 02:53:21;;;;;;;5.57;4.82;;;20.70;45.40;;;;;;10398659;28;20052;-62
2024/03/11 02:58:22;;;;;;;6.45;4.90;;;20.80;45.40;;;;;;10399460;28;20445;-60
2024/03/11 03:03:24;;;;;;;5.72;5.07;;;20.70;45.30;;;;;;10402189;28;20073;-60
2024/03/11 03:08:27;;;;;;;5.55;4.50;;;20.70;45.30;;;;;;10398365;28;20057;-61
2024/03/11 03:13:29;;;;;;;6.18;4.85;;;20.70;45.20;;;;;;10394631;28;20124;-61
2024/03/11 03:18:31;;;;;;;5.53;4.82;;;20.50;45.50;;;;;;10398067;28;20144;-60
2024/03/11 03:23:34;;;;;;;5.63;4.70;;;20.50;45.50;;;;;;10397437;28;20128;-61
2024/03/11 03:28:37;;;;;;;6.40;5.07;;;20.50;45.60;;;;;;10397039;28;20081;-61
2024/03/11 03:33:39;;;;;;;5.43;4.78;;;20.60;45.30;;;;;;10395881;28;20050;-61
2024/03/11 03:38:42;;;;;;;6.20;4.93;;;20.60;45.20;;;;;;10390074;28;20129;-61
2024/03/11 03:43:44;;;;;;;6.07;5.20;;;20.60;45.30;;;;;;10390074;28;20128;-60
2024/03/11 03:48:46;;;;;;;6.95;4.53;;;20.50;45.40;;;;;;10393767;28;20551;-60
2024/03/11 03:53:49;;;;;;;5.40;4.85;;;20.40;45.50;;;;;;10394876;28;20041;-60
2024/03/11 03:58:51;;;;;;;6.30;5.00;;;20.40;45.60;;;;;;10396471;28;20053;-61
2024/03/11 04:03:53;;;;;;;5.65;4.63;;;20.20;45.70;;;;;;10404719;28;20539;-58
2024/03/11 04:08:56;;;;;;;5.93;4.75;;;20.80;44.70;;;;;;10402599;28;20132;-60
2024/03/11 04:13:58;;;;;;;6.00;4.70;;;21.10;45.10;;;;;;10397954;28;20128;-60
2024/03/11 04:18:59;;;;;;;5.93;4.75;;;21.10;45.70;;;;;;10396946;28;20455;-58
2024/03/11 04:24:02;;;;;;;6.15;4.70;;;21.20;45.90;;;;;;10393914;28;20156;-58
2024/03/11 04:29:05;;;;;;;6.85;4.70;;;21.20;45.80;;;;;;10392714;28;20140;-59
2024/03/11 04:34:07;;;;;;;6.07;4.30;;;21.30;45.70;;;;;;10394964;28;20564;-61
2024/03/11 04:39:14;;;;;;;5.40;4.30;;;21.40;45.80;;;;;;10396688;28;20128;-61
2024/03/11 04:44:16;;;;;;;5.90;4.80;;;21.40;45.60;;;;;;10397861;28;20042;-61
2024/03/11 04:49:19;;;;;;;5.95;4.30;;;21.50;45.60;;;;;;10393497;28;20132;-61
2024/03/11 04:54:22;;;;;;;5.72;4.53;;;21.60;45.80;;;;;;10402082;28;20070;-61
2024/03/11 04:59:23;;;;;;;4.93;4.20;;;21.60;45.90;;;;;;10400824;28;20111;-58
2024/03/11 05:04:27;;;;;;;4.75;4.05;;;21.50;46.20;;;;;;10398626;28;20484;-60
2024/03/11 05:09:30;;;;;;;4.90;4.22;;;21.60;46.00;;;;;;10402282;28;20053;-62
2024/03/11 05:14:33;;;;;;;5.72;4.30;;;21.60;45.90;;;;;;10405268;28;20547;-60
2024/03/11 05:19:34;;;;;;;5.43;4.55;;;21.70;45.60;;;;;;10409350;28;20049;-64
2024/03/11 05:24:38;;;;;;;6.13;4.30;;;21.70;45.60;;;;;;10404035;28;20142;-64
2024/03/11 05:29:39;;;;;;;4.88;4.22;;;21.70;45.70;;;;;;10402576;28;20496;-63
2024/03/11 05:34:41;;;;;;;4.43;3.70;;;21.80;45.70;;;;;;10403328;28;20154;-62
2024/03/11 05:39:44;;;;;;;4.30;3.60;;;21.80;45.80;;;;;;10400636;28;20045;-64
2024/03/11 05:44:46;;;;;;;6.90;3.80;;;21.80;46.10;;;;;;10401521;28;20140;-60
2024/03/11 05:49:47;;;;;;;6.72;3.40;;;22.10;45.50;;;;;;10399001;28;20129;-59
2024/03/11 05:54:50;;;;;;;4.75;3.70;;;22.30;45.10;;;;;;10397099;28;20129;-64
2024/03/11 05:59:52;;;;;;;3.60;3.13;;;22.50;45.00;;;;;;10393551;28;20443;-64
2024/03/11 06:04:54;;;;;;;3.55;3.10;;;22.60;44.80;;;;;;10374880;28;20555;-60
2024/03/11 06:09:58;;;;;;;4.22;3.30;;;22.20;45.70;;;;;;10360889;28;20153;-60
2024/03/11 06:14:59;;;;;;;3.80;3.30;;;22.10;45.80;;;;;;10357482;28;20053;-62
2024/03/11 06:20:04;;;;;;;7.13;2.80;;;22.10;45.80;;;;;;10362789;28;21271;-61
2024/03/11 06:25:09;;;;;;;5.72;3.20;;;22.30;45.90;;;;;;10361289;28;20049;-60
2024/03/11 06:30:12;;;;;;;4.55;3.17;;;22.30;46.10;;;;;;10375048;28;20095;-62
2024/03/11 06:35:13;;;;;;;3.30;2.78;;;22.20;46.30;;;;;;10399319;28;20082;-60
2024/03/11 06:40:21;;;;;;;5.13;3.10;;;22.20;46.30;;;;;;10397582;28;20722;-62
2024/03/11 06:45:22;;;;;;;3.90;3.05;;;22.10;46.40;;;;;;10395245;28;20041;-56
2024/03/11 06:50:25;;;;;;;5.32;3.10;;;22.20;46.40;;;;;;10396703;28;20128;-59
2024/03/11 06:55:28;;;;;;;3.72;3.10;;;22.20;47.10;;;;;;10400331;28;20046;-61
2024/03/11 07:00:30;;;;;;;3.00;2.70;;;22.20;47.30;;;;;;10399326;28;20085;-62
2024/03/11 07:05:32;;;;;;;3.90;2.92;;;22.20;47.10;;;;;;10371872;28;20046;-63
2024/03/11 07:10:34;;;;;;;3.72;3.03;;;22.30;46.80;;;;;;10348762;28;20054;-60
2024/03/11 07:15:36;;;;;;;3.92;2.85;;;22.40;46.40;;;;;;10352169;28;20081;-60
2024/03/11 07:20:38;;;;;;;3.10;2.67;;;22.30;46.30;;;;;;10348384;28;20050;-62
2024/03/11 07:25:43;;;;;;;4.57;2.50;;;22.20;47.20;;;;;;10357127;28;20160;-59
2024/03/11 07:30:47;;;;;;;4.90;2.60;;;22.20;46.90;;;;;;10358307;28;20575;-62
2024/03/11 07:35:53;;;;;;;4.30;2.80;;;22.10;47.00;;;;;;10358492;28;20674;-59
2024/03/11 07:40:56;;;;;;;4.32;2.60;;;22.20;46.80;;;;;;10384908;28;20067;-57
2024/03/11 07:45:57;;;;;;;2.92;2.47;;;22.20;46.90;;;;;;10400718;28;20047;-64
2024/03/11 07:50:59;;;;;;;4.97;2.50;;;22.20;46.90;;;;;;10398103;28;20136;-61
2024/03/11 07:56:03;;;;;;;3.03;2.70;;;22.20;47.60;;;;;;10396775;28;20038;-60
2024/03/11 08:01:06;;;;;;;4.20;2.92;;;22.10;47.60;;;;;;10395809;28;20049;-60
2024/03/11 08:06:08;;;;;;;3.78;2.95;;;22.10;47.60;;;;;;10389956;28;20049;-58
2024/03/11 08:11:11;;;;;;;2.42;2.15;;;22.10;47.60;;;;;;10401476;28;20042;-62
2024/03/11 08:16:13;;;;;;;3.05;2.50;;;22.10;47.40;;;;;;10400096;28;20057;-58
2024/03/11 08:21:15;;;;;;;3.60;2.15;;;22.10;47.40;;;;;;10402737;28;20056;-63
2024/03/11 08:26:18;;;;;;;2.65;2.40;;;22.00;47.50;;;;;;10402711;28;20132;-62
2024/03/11 08:31:19;;;;;;;2.95;2.42;;;22.00;47.50;;;;;;10398627;28;20045;-58
2024/03/11 08:36:24;;;;;;;2.85;2.55;;;22.00;47.60;;;;;;10402689;28;20037;-58
2024/03/11 08:41:28;;;;;;;3.13;2.60;;;21.90;47.50;;;;;;10400495;28;20054;-62
2024/03/11 08:46:29;;;;;;;2.58;2.28;;;21.90;47.10;;;;;;10400863;28;20038;-62
2024/03/11 08:51:31;;;;;;;2.78;2.17;;;22.00;47.20;;;;;;10405913;28;20042;-59
2024/03/11 08:56:35;;;;;;;3.30;2.10;;;22.00;47.50;;;;;;10403650;28;20049;-61
2024/03/11 09:01:40;;;;;;;2.72;2.10;;;22.10;47.30;;;;;;10399127;28;20052;-56
2024/03/11 09:06:43;;;;;;;3.22;2.25;;;22.20;47.30;;;;;;10404501;28;20051;-59
2024/03/11 09:11:46;;;;;;;3.35;2.33;;;22.20;47.10;;;;;;10398006;28;20046;-60
2024/03/11 09:16:48;;;;;;;2.58;2.22;;;22.30;47.10;;;;;;10398043;28;20575;-60
2024/03/11 09:21:49;;;;;;;3.20;2.60;;;22.30;47.10;;;;;;10395295;28;20468;-60
2024/03/11 09:26:52;;;;;;;2.17;1.98;;;22.30;47.20;;;;;;10402372;28;20392;-60
2024/03/11 09:31:54;;;;;;;2.38;2.17;;;22.20;47.10;;;;;;10396559;28;20141;-59
2024/03/11 09:36:56;;;;;;;2.78;2.10;;;22.30;47.00;;;;;;10399517;28;20057;-60
2024/03/11 09:42:04;;;;;;;2.67;2.20;;;22.30;47.10;;;;;;10400730;28;20052;-62
2024/03/11 09:47:07;;;;;;;2.17;1.98;;;22.40;47.00;;;;;;10392757;28;20100;-60
2024/03/11 09:52:09;;;;;;;2.47;2.17;;;22.20;47.00;;;;;;10395714;28;20185;-61
2024/03/11 09:57:14;;;;;;;3.90;2.13;;;22.30;47.10;;;;;;10403268;28;20048;-66
2024/03/11 10:02:18;;;;;;;2.80;2.40;;;22.40;47.10;;;;;;10404095;28;20133;-59
2024/03/11 10:07:19;;;;;;;3.92;2.38;;;22.40;46.80;;;;;;10399366;28;20415;-62
2024/03/11 10:12:22;;;;;;;2.60;2.20;;;22.40;47.20;;;;;;10398035;28;20057;-61
2024/03/11 10:17:26;;;;;;;3.28;2.28;;;22.40;48.20;;;;;;10394869;28;20579;-63
2024/03/11 10:22:29;;;;;;;5.05;2.63;;;22.50;47.60;;;;;;10397497;28;20045;-58
2024/03/11 10:27:33;;;;;;;4.18;2.50;;;22.40;47.70;;;;;;10395927;28;20512;-59
2024/03/11 10:32:36;;;;;;;2.55;2.17;;;22.40;47.70;;;;;;10391861;28;20065;-60
2024/03/11 10:37:39;;;;;;;6.47;2.33;;;22.40;47.90;;;;;;10391695;28;20057;-55
2024/03/11 10:42:49;;;;;;;7.05;2.63;;;22.40;48.20;;;;;;10353502;28;20077;-64
2024/03/11 10:47:51;;;;;;;25.58;5.07;;;22.40;49.20;;;;;;10348268;28;20042;-62
2024/03/11 10:52:55;;;;;;;43.40;4.97;;;22.40;50.10;;;;;;10346742;28;20687;-57
2024/03/11 10:57:59;;;;;;;24.35;4.50;;;22.50;50.60;;;;;;10392965;28;20400;-61
2024/03/11 11:03:07;;;;;;;16.00;3.67;;;22.50;50.90;;;;;;10395227;28;20140;-59
2024/03/11 11:08:12;;;;;;;28.70;3.97;;;22.70;50.60;;;;;;10365232;28;20049;-62
2024/03/11 11:13:16;;;;;;;14.30;3.42;;;22.70;49.70;;;;;;10393905;28;20045;-62
2024/03/11 11:18:18;;;;;;;12.88;3.30;;;22.80;49.10;;;;;;10399211;28;20125;-62
2024/03/11 11:23:27;;;;;;;6.93;3.10;;;22.90;48.70;;;;;;10401308;28;20124;-60
2024/03/11 11:28:36;;;;;;;7.55;3.10;;;22.90;48.00;;;;;;10399358;28;20501;-58
2024/03/11 11:33:53;;;;;;;11.07;3.25;;;23.10;48.10;;;;;;10398371;28;20575;-58
2024/03/11 11:38:56;;;;;;;7.50;3.38;;;23.30;47.40;;;;;;10389468;28;20086;-58
2024/03/11 11:44:00;;;;;;;7.28;2.70;;;23.10;47.40;;;;;;10384720;28;20092;-59
2024/03/11 11:49:17;;;;;;;10.27;3.03;;;23.20;47.40;;;;;;10386079;28;20045;-56
2024/03/11 11:54:25;;;;;;;6.50;3.10;;;23.20;47.10;;;;;;10394440;28;20124;-58
2024/03/11 11:59:30;;;;;;;11.80;4.20;;;23.00;47.60;;;;;;10421490;28;20048;-57
2024/03/11 12:04:33;;;;;;;14.25;4.88;;;22.90;48.50;;;;;;10391507;28;20049;-59
2024/03/11 12:09:35;;;;;;;12.82;5.03;;;22.90;48.90;;;;;;10385705;28;20056;-59
2024/03/11 12:14:39;;;;;;;11.40;4.40;;;22.90;49.00;;;;;;10391640;28;20042;-59
2024/03/11 12:19:40;;;;;;;11.60;4.38;;;22.80;49.30;;;;;;10387399;28;20080;-61
2024/03/11 12:24:43;;;;;;;10.90;4.70;;;22.70;49.40;;;;;;10394683;28;20478;-60
2024/03/11 12:29:46;;;;;;;12.80;4.65;;;22.70;49.60;;;;;;10400900;28;20049;-59
2024/03/11 12:34:49;;;;;;;15.40;5.03;;;22.70;50.00;;;;;;10399208;28;20053;-58
2024/03/11 12:39:52;;;;;;;14.00;4.68;;;22.80;50.30;;;;;;10397527;28;20079;-59
2024/03/11 12:44:55;;;;;;;9.82;4.47;;;22.80;50.50;;;;;;10394204;28;20514;-61
2024/03/11 12:49:57;;;;;;;10.70;4.35;;;22.80;51.30;;;;;;10390280;28;20124;-61
2024/03/11 12:55:07;;;;;;;9.30;4.50;;;22.70;51.10;;;;;;10392044;28;20053;-58
2024/03/11 13:00:11;;;;;;;8.25;3.95;;;22.80;50.90;;;;;;10399859;28;20049;-61
2024/03/11 13:05:14;;;;;;;7.20;3.85;;;22.90;51.10;;;;;;10398344;28;20049;-62
2024/03/11 13:10:16;;;;;;;7.22;3.55;;;22.70;51.40;;;;;;10396631;28;20099;-57
2024/03/11 13:15:19;;;;;;;8.02;4.20;;;22.80;51.40;;;;;;10399604;28;20136;-60
2024/03/11 13:20:36;;;;;;;8.57;4.00;;;22.80;51.40;;;;;;10396089;28;20129;-58
2024/03/11 13:25:39;;;;;;;6.95;3.60;;;22.80;51.40;;;;;;10393567;28;20048;-57
2024/03/11 13:30:44;;;;;;;4.60;3.50;;;22.80;51.50;;;;;;10396046;28;20053;-60
2024/03/11 13:35:45;;;;;;;5.72;3.30;;;22.80;51.40;;;;;;10400747;28;20052;-58
2024/03/11 13:40:49;;;;;;;9.15;3.47;;;22.90;51.20;;;;;;10406657;28;20543;-60
2024/03/11 13:45:52;;;;;;;7.00;3.60;;;22.90;51.30;;;;;;10404804;28;20068;-61
2024/03/11 13:50:56;;;;;;;5.93;3.60;;;22.90;51.20;;;;;;10404962;28;20123;-58
2024/03/11 13:55:58;;;;;;;6.18;3.83;;;22.90;51.30;;;;;;10401504;28;20046;-63
2024/03/11 14:01:01;;;;;;;6.18;3.30;;;22.90;51.30;;;;;;10397131;28;20048;-63
2024/03/11 14:06:03;;;;;;;6.18;3.03;;;23.00;51.20;;;;;;10398880;28;20136;-62
2024/03/11 14:11:05;;;;;;;5.53;3.22;;;22.90;51.10;;;;;;10400538;28;20392;-63
2024/03/11 14:16:09;;;;;;;4.28;3.03;;;23.00;51.00;;;;;;10396704;28;20038;-61
2024/03/11 14:21:12;;;;;;;6.32;3.10;;;23.10;50.80;;;;;;10392991;28;20068;-63
2024/03/11 14:26:14;;;;;;;7.78;3.13;;;23.10;50.70;;;;;;10387825;28;20128;-63
2024/03/11 14:31:17;;;;;;;4.05;2.90;;;23.10;50.70;;;;;;10391100;28;20460;-63
2024/03/11 14:36:19;;;;;;;6.15;3.25;;;23.20;50.60;;;;;;10392605;28;20424;-59
2024/03/11 14:41:21;;;;;;;6.22;3.00;;;23.10;51.00;;;;;;10401959;28;20052;-60
2024/03/11 14:46:24;;;;;;;5.75;3.60;;;23.00;51.40;;;;;;10398115;28;20498;-59
2024/03/11 14:51:27;;;;;;;6.15;3.08;;;23.00;51.80;;;;;;10399970;28;20072;-59
2024/03/11 14:56:29;;;;;;;10.70;3.13;;;23.10;51.90;;;;;;10401714;28;20435;-56
2024/03/11 15:01:32;;;;;;;4.78;2.40;;;23.10;52.30;;;;;;10402864;28;20128;-58
2024/03/11 15:06:34;;;;;;;9.13;3.42;;;23.30;51.80;;;;;;10400854;28;20038;-59
2024/03/11 15:11:38;;;;;;;16.77;3.35;;;23.40;51.10;;;;;;10400145;28;20104;-57
2024/03/11 15:16:41;;;;;;;12.98;3.50;;;23.80;50.80;;;;;;10399653;28;20053;-59
2024/03/11 15:21:43;;;;;;;12.77;4.15;;;23.70;50.50;;;;;;10396987;28;20128;-58
2024/03/11 15:26:45;;;;;;;10.55;3.15;;;23.70;50.40;;;;;;10397610;28;20085;-57
2024/03/11 15:31:52;;;;;;;7.20;3.50;;;23.50;50.00;;;;;;10389842;28;20664;-51
2024/03/11 15:36:54;;;;;;;5.47;3.15;;;23.50;49.90;;;;;;10387982;28;20042;-54
2024/03/11 15:41:55;;;;;;;7.40;3.08;;;23.50;49.80;;;;;;10393405;28;20428;-54
2024/03/11 15:46:58;;;;;;;7.50;3.20;;;23.70;49.30;;;;;;10398498;28;20117;-50
2024/03/11 15:52:06;;;;;;;4.68;2.83;;;23.50;49.80;;;;;;10399617;28;20132;-52
2024/03/11 15:57:07;;;;;;;6.10;2.80;;;23.30;49.90;;;;;;10364394;28;20042;-48
2024/03/11 16:02:10;;;;;;;5.75;3.25;;;23.30;50.20;;;;;;10355531;28;20056;-50
2024/03/11 16:07:14;;;;;;;9.10;2.80;;;23.50;49.80;;;;;;10392973;28;20133;-49
2024/03/11 16:12:16;;;;;;;9.65;2.97;;;23.40;50.00;;;;;;10396307;28;20049;-49
2024/03/11 16:17:21;;;;;;;8.05;3.15;;;23.30;50.20;;;;;;10394011;28;20575;-48
2024/03/11 16:22:23;;;;;;;5.63;2.70;;;23.30;50.20;;;;;;10385556;28;20088;-50
2024/03/11 16:27:24;;;;;;;4.45;2.70;;;23.30;50.00;;;;;;10397181;28;20041;-49
2024/03/11 16:32:30;;;;;;;6.60;2.60;;;23.30;50.10;;;;;;10400748;28;20087;-49
2024/03/11 16:37:32;;;;;;;7.75;3.20;;;23.30;50.10;;;;;;10364027;28;20116;-49
2024/03/11 16:42:34;;;;;;;7.22;4.13;;;23.30;50.00;;;;;;10365765;28;20133;-52
2024/03/11 16:47:39;;;;;;;24.73;8.70;;;23.30;50.00;;;;;;10349916;28;20407;-50
2024/03/11 16:52:42;;;;;;;30.40;15.65;;;23.30;50.20;;;;;;10352956;28;20439;-50
2024/03/11 16:57:43;;;;;;;36.00;17.95;;;23.30;49.60;;;;;;10353435;28;20046;-52
2024/03/11 17:02:47;;;;;;;35.00;18.15;;;23.30;49.90;;;;;;10400977;28;20088;-53
2024/03/11 17:07:50;;;;;;;38.50;19.65;;;23.40;49.20;;;;;;10400709;28;20049;-52
2024/03/11 17:12:52;;;;;;;36.72;20.15;;;23.30;48.90;;;;;;10402945;28;20417;-53
2024/03/11 17:17:56;;;;;;;34.78;18.70;;;23.30;49.80;;;;;;10402938;28;20057;-55
2024/03/11 17:22:57;;;;;;;34.75;18.67;;;23.30;49.50;;;;;;10405510;28;20057;-54
2024/03/11 17:28:01;;;;;;;32.22;17.55;;;23.30;49.70;;;;;;10399107;28;20469;-50
2024/03/11 17:33:08;;;;;;;30.60;18.08;;;23.40;49.70;;;;;;10404253;28;20045;-49
2024/03/11 17:38:11;;;;;;;30.45;16.00;;;23.30;49.80;;;;;;10396796;28;20743;-48
2024/03/11 17:43:13;;;;;;;35.75;17.55;;;23.40;50.60;;;;;;10401397;28;20045;-51
2024/03/11 17:48:20;;;;;;;38.47;19.55;;;23.40;51.10;;;;;;10395179;28;20056;-51
2024/03/11 17:53:22;;;;;;;28.08;17.38;;;23.40;52.10;;;;;;10352014;28;20133;-58
2024/03/11 17:58:24;;;;;;;30.15;18.92;;;23.40;51.90;;;;;;10357876;28;20054;-50
2024/03/11 18:03:27;;;;;;;26.98;17.88;;;23.40;51.40;;;;;;10396850;28;20052;-51
2024/03/11 18:08:29;;;;;;;30.63;17.88;;;23.50;51.00;;;;;;10394711;28;20677;-48
2024/03/11 18:13:31;;;;;;;27.23;17.85;;;23.50;50.50;;;;;;10392383;28;20152;-49
2024/03/11 18:18:34;;;;;;;25.80;17.27;;;23.60;50.10;;;;;;10393736;28;20054;-49
2024/03/11 18:23:36;;;;;;;27.65;17.80;;;23.60;49.60;;;;;;10397215;28;20041;-49
2024/03/11 18:28:38;;;;;;;26.08;17.85;;;23.60;49.50;;;;;;10394923;28;20532;-49
2024/03/11 18:33:44;;;;;;;24.55;17.48;;;23.50;49.20;;;;;;10360699;28;20144;-51
2024/03/11 18:38:46;;;;;;;27.02;17.20;;;23.50;49.20;;;;;;10367531;28;20056;-49
2024/03/11 18:43:50;;;;;;;23.60;16.35;;;23.40;49.00;;;;;;10394121;28;20058;-49
2024/03/11 18:48:54;;;;;;;24.15;16.17;;;23.50;48.60;;;;;;10400442;28;20046;-48
2024/03/11 18:53:55;;;;;;;24.45;15.70;;;23.50;48.30;;;;;;10389656;28;20136;-55
2024/03/11 18:58:57;;;;;;;21.92;15.20;;;23.40;48.00;;;;;;10398676;28;20059;-50
2024/03/11 19:04:00;;;;;;;22.10;16.27;;;23.50;47.60;;;;;;10397123;28;20087;-51
2024/03/11 19:09:02;;;;;;;20.23;15.10;;;23.50;47.50;;;;;;10391028;28;20141;-54
2024/03/11 19:14:03;;;;;;;21.40;16.52;;;23.50;47.30;;;;;;10397774;28;20458;-54
2024/03/11 19:19:06;;;;;;;21.95;15.55;;;23.70;47.50;;;;;;10397296;28;20124;-50
2024/03/11 19:24:08;;;;;;;21.75;15.68;;;23.70;46.70;;;;;;10396978;28;20637;-50
2024/03/11 19:29:10;;;;;;;20.52;15.70;;;23.70;46.60;;;;;;10395062;28;20511;-50
2024/03/11 19:34:13;;;;;;;23.55;15.88;;;23.60;46.50;;;;;;10390113;28;20419;-50
2024/03/11 19:39:26;;;;;;;23.98;15.73;;;23.50;46.60;;;;;;10390407;28;20056;-48
2024/03/11 19:44:34;;;;;;;19.70;15.60;;;23.40;46.70;;;;;;10398161;28;20076;-50
2024/03/11 19:49:58;;;;;;;21.00;15.32;;;23.10;47.00;;;;;;10394535;28;20481;-53
2024/03/11 19:56:00;;;;;;;19.85;15.10;;;23.10;46.90;;;;;;10400386;28;20150;-49
2024/03/11 20:01:39;;;;;;;34.35;17.95;;;23.10;46.60;;;;;;10341310;28;20128;-50
2024/03/11 20:06:59;;;;;;;36.63;18.15;;;23.00;46.90;;;;;;10385998;28;20562;-52
2024/03/11 20:12:29;;;;;;;37.92;19.35;;;22.90;47.20;;;;;;10390734;28;20049;-51
2024/03/11 20:17:59;;;;;;;34.83;20.30;;;22.90;47.20;;;;;;10392464;28;20081;-50
2024/03/11 20:23:33;;;;;;;41.35;19.98;;;22.90;47.00;;;;;;10392877;28;20119;-49
2024/03/11 20:28:39;;;;;;;43.35;21.17;;;23.20;46.90;;;;;;10392590;28;20045;-52
2024/03/11 20:33:42;;;;;;;38.80;20.63;;;23.10;47.20;;;;;;10391838;28;20099;-52
2024/03/11 20:38:45;;;;;;;35.60;20.50;;;23.20;47.10;;;;;;10390808;28;20439;-51
2024/03/11 20:43:47;;;;;;;32.20;20.05;;;23.10;47.30;;;;;;10395658;28;20069;-53
2024/03/11 20:48:48;;;;;;;30.60;18.98;;;22.90;47.80;;;;;;10386720;28;20116;-51
2024/03/11 20:53:52;;;;;;;30.15;19.50;;;22.70;48.60;;;;;;10354473;28;20073;-49
2024/03/11 20:58:53;;;;;;;29.55;17.77;;;22.50;48.80;;;;;;10356569;28;20119;-49
2024/03/11 21:03:56;;;;;;;28.05;18.55;;;22.50;49.40;;;;;;10358205;28;20089;-54
2024/03/11 21:08:59;;;;;;;31.88;18.27;;;22.30;49.70;;;;;;10358911;28;20045;-57
2024/03/11 21:14:01;;;;;;;27.63;18.02;;;22.10;50.00;;;;;;10350691;28;20498;-56
2024/03/11 21:19:18;;;;;;;26.42;17.73;;;22.00;50.20;;;;;;10355775;28;20504;-50
2024/03/11 21:24:39;;;;;;;27.17;17.80;;;21.90;50.30;;;;;;10367223;28;20226;-52
2024/03/11 21:29:41;;;;;;;24.87;17.57;;;21.90;50.40;;;;;;10392965;28;20052;-51
2024/03/11 21:34:43;;;;;;;27.67;17.92;;;21.80;50.50;;;;;;10397164;28;20053;-53
2024/03/11 21:39:50;;;;;;;27.48;17.80;;;21.80;50.30;;;;;;10387708;28;20046;-51
2024/03/11 21:44:52;;;;;;;24.52;17.15;;;21.80;50.40;;;;;;10354350;28;20108;-54
2024/03/11 21:49:54;;;;;;;26.55;17.40;;;21.90;50.10;;;;;;10358673;28;20509;-56
2024/03/11 21:54:58;;;;;;;24.73;17.42;;;22.00;50.00;;;;;;10373168;28;20474;-56
2024/03/11 21:59:59;;;;;;;23.73;16.35;;;22.10;49.40;;;;;;10399538;28;20108;-55
2024/03/11 22:05:01;;;;;;;24.85;17.42;;;22.20;49.10;;;;;;10407406;28;20049;-52
2024/03/11 22:10:05;;;;;;;25.13;17.52;;;22.10;49.30;;;;;;10400265;28;20045;-53
2024/03/11 22:15:08;;;;;;;23.88;16.40;;;22.10;49.30;;;;;;10401896;28;20038;-53
2024/03/11 22:20:11;;;;;;;23.23;16.65;;;22.00;49.60;;;;;;10400633;28;20497;-53
2024/03/11 22:25:14;;;;;;;22.70;16.02;;;21.90;49.70;;;;;;10397310;28;20082;-52
2024/03/11 22:30:17;;;;;;;20.17;15.25;;;21.90;49.70;;;;;;10393167;28;20061;-54
2024/03/11 22:35:19;;;;;;;21.20;16.15;;;21.70;50.00;;;;;;10390471;28;20068;-53
2024/03/11 22:40:22;;;;;;;25.90;16.40;;;21.70;49.80;;;;;;10394507;28;20046;-52
2024/03/11 22:45:24;;;;;;;22.52;16.52;;;21.70;50.20;;;;;;10396688;28;20509;-55
2024/03/11 22:50:26;;;;;;;21.15;15.57;;;21.60;50.30;;;;;;10392689;28;20125;-52
2024/03/11 22:55:28;;;;;;;20.33;15.80;;;21.70;50.00;;;;;;10398979;28;20064;-51
2024/03/11 23:00:50;;;;;;;21.85;15.82;;;21.50;50.50;;;;;;10393748;28;20499;-55
2024/03/11 23:05:51;;;;;;;23.48;15.63;;;21.30;50.60;;;;;;10392576;28;20584;-55
2024/03/11 23:10:55;;;;;;;21.17;15.43;;;21.30;50.80;;;;;;10395638;28;20121;-52
2024/03/11 23:15:58;;;;;;;20.60;15.48;;;21.40;50.70;;;;;;10392262;28;20463;-57
2024/03/11 23:20:59;;;;;;;18.55;14.05;;;21.20;50.80;;;;;;10400938;28;20041;-53
2024/03/11 23:26:02;;;;;;;20.67;14.85;;;21.20;51.00;;;;;;10400022;28;20103;-52
2024/03/11 23:31:04;;;;;;;20.42;14.30;;;21.10;51.00;;;;;;10400595;28;20065;-52
2024/03/11 23:36:09;;;;;;;19.85;14.73;;;21.00;51.10;;;;;;10400898;28;20575;-53
2024/03/11 23:41:12;;;;;;;17.48;14.10;;;21.10;51.00;;;;;;10390961;28;20038;-52
2024/03/11 23:46:14;;;;;;;18.13;13.82;;;21.10;50.80;;;;;;10395655;28;20060;-55
2024/03/11 23:51:16;;;;;;;19.17;13.68;;;21.00;51.00;;;;;;10396431;28;20658;-52
2024/03/11 23:56:19;;;;;;;19.63;13.40;;;20.90;51.30;;;;;;10394527;28;20152;-52
